Time;durP1;ratioP1;P1;durP2;ratioP2;P2;SDS_P1;SDS_P2;PMS_P1;PMS_P2;Temp;Humidity;BMP_temperature;BMP_pressure;BME280_temperature;BME280_humidity;BME280_pressure;Samples;Min_cycle;Max_cycle;Signal;HPM_P1;HPM_P2
2023/05/05 04:29:20;;;;;;;6.33;3.23;;;;;;;15.58;67.59;95709.66;6138382;23;20214;31
2023/05/05 04:43:31;;;;;;;3.43;3.13;;;;;;;15.79;68.15;95718.69;6160061;23;20213;-85
2023/05/05 05:22:13;;;;;;;4.97;2.58;;;;;;;17.70;62.13;95744.16;6111247;23;20215;-87
2023/05/05 05:28:27;;;;;;;2.70;1.92;;;;;;;17.82;61.93;95739.19;6021959;23;20250;-87
2023/05/05 05:33:58;;;;;;;2.58;1.80;;;;;;;17.96;60.62;95754.09;6031389;23;20176;-85
2023/05/05 05:44:02;;;;;;;3.55;2.25;;;;;;;18.57;58.91;95743.06;5964589;24;20168;-88
2023/05/05 05:47:14;;;;;;;4.60;2.03;;;;;;;18.86;58.28;95747.31;5964192;24;20233;-87
2023/05/05 05:49:40;;;;;;;3.22;2.20;;;;;;;19.11;57.92;95758.16;5961982;24;20190;-87
2023/05/05 05:52:05;;;;;;;2.20;1.83;;;;;;;19.26;56.73;95764.13;5940243;24;20630;-86
2023/05/05 05:54:45;;;;;;;2.72;2.00;;;;;;;19.70;55.10;95752.31;5956837;23;20174;-86
2023/05/05 05:57:13;;;;;;;3.15;2.05;;;;;;;19.76;54.68;95762.06;5994977;23;20202;-86
2023/05/05 05:59:39;;;;;;;2.97;1.92;;;;;;;19.20;55.63;95763.06;6030386;23;20184;-86
2023/05/05 06:02:04;;;;;;;3.22;2.58;;;;;;;19.12;55.92;95762.41;6082206;23;20220;-87
2023/05/05 06:04:30;;;;;;;3.33;2.03;;;;;;;18.85;56.75;95766.72;6082939;23;20172;-88
2023/05/05 06:06:56;;;;;;;2.80;1.65;;;;;;;18.87;57.12;95764.72;6089328;23;20183;-88
2023/05/05 06:09:21;;;;;;;2.58;1.90;;;;;;;18.83;57.35;95766.94;6087199;23;20180;-88
2023/05/05 06:11:46;;;;;;;3.58;1.92;;;;;;;18.61;57.80;95776.66;6085289;23;20187;-87
2023/05/05 06:14:12;;;;;;;3.47;1.85;;;;;;;18.64;57.72;95772.81;6142464;23;20213;-87
2023/05/05 06:16:37;;;;;;;2.38;1.55;;;;;;;18.44;58.38;95771.88;6134765;23;20178;-88
2023/05/05 06:19:05;;;;;;;2.97;1.40;;;;;;;18.39;58.81;95775.09;6158457;23;20190;-87
2023/05/05 06:21:30;;;;;;;2.28;1.80;;;;;;;18.32;58.68;95766.34;6135884;23;20166;-87
2023/05/05 06:23:55;;;;;;;3.55;1.60;;;;;;;18.25;59.09;95768.09;6159801;23;20219;-89
2023/05/05 06:26:21;;;;;;;1.98;1.63;;;;;;;18.26;58.45;95765.25;6139748;23;20539;-88
2023/05/05 06:28:49;;;;;;;3.25;1.70;;;;;;;18.03;59.80;95762.03;6158008;23;20628;-88
2023/05/05 06:31:17;;;;;;;1.55;1.45;;;;;;;18.02;59.44;95763.03;6158794;23;20170;-87
2023/05/05 06:33:43;;;;;;;2.67;1.80;;;;;;;18.01;59.31;95766.66;6142827;23;20230;-87
2023/05/05 06:36:08;;;;;;;1.75;1.65;;;;;;;18.04;59.58;95768.94;6158234;23;20178;-86
2023/05/05 06:38:34;;;;;;;4.03;1.83;;;;;;;17.98;60.09;95777.56;6159358;23;20652;-87
2023/05/05 06:41:30;;;;;;;3.05;1.58;;;;;;;17.93;60.04;95778.09;6133675;23;20175;-88
2023/05/05 06:47:38;;;;;;;7.78;2.00;;;;;;;18.05;59.80;95773.19;6177553;23;20165;-88
2023/05/05 06:50:07;;;;;;;5.78;2.05;;;;;;;18.07;60.08;95773.78;6155150;23;20182;-89
2023/05/05 06:52:32;;;;;;;5.40;1.80;;;;;;;18.05;59.75;95770.53;6158546;23;20155;-88
2023/05/05 06:58:25;;;;;;;3.22;1.83;;;;;;;18.13;59.74;95774.88;6121492;23;20183;-88
2023/05/05 07:01:21;;;;;;;2.00;1.80;;;;;;;18.31;59.09;95770.78;6135578;23;20192;-89
2023/05/05 07:03:52;;;;;;;4.53;1.95;;;;;;;18.35;59.32;95777.28;6158572;23;20162;-87
2023/05/05 07:06:27;;;;;;;2.80;1.80;;;;;;;18.36;59.61;95778.88;6135538;23;20151;-87
2023/05/05 07:08:52;;;;;;;2.10;1.90;;;;;;;18.18;59.17;95769.84;6133985;23;20182;-88
2023/05/05 07:11:24;;;;;;;3.78;2.42;;;;;;;18.25;59.10;95779.41;6134697;23;20208;-88
2023/05/05 07:13:57;;;;;;;2.08;1.67;;;;;;;18.10;59.61;95787.34;6158862;23;20177;-88
2023/05/05 07:17:02;;;;;;;3.63;1.77;;;;;;;18.20;59.96;95784.44;6133170;23;20155;-88
2023/05/05 07:19:38;;;;;;;4.43;2.08;;;;;;;18.08;59.95;95784.13;6126019;23;20210;-87
2023/05/05 07:22:07;;;;;;;3.92;2.20;;;;;;;17.97;60.40;95789.06;6129057;23;20490;-87
2023/05/05 07:24:55;;;;;;;4.50;2.50;;;;;;;18.11;59.37;95790.81;6153614;23;20210;-88
2023/05/05 07:27:36;;;;;;;2.05;1.70;;;;;;;18.20;59.65;95792.31;6152444;23;20501;-88
2023/05/05 07:30:17;;;;;;;4.60;1.50;;;;;;;18.32;59.19;95792.63;6148352;23;20183;-87
2023/05/05 07:33:02;;;;;;;1.95;1.60;;;;;;;18.27;59.07;95793.16;6098741;23;20148;-88
2023/05/05 07:35:48;;;;;;;2.50;1.80;;;;;;;18.67;58.63;95790.91;6100241;23;20673;-87
2023/05/05 07:41:58;;;;;;;;;;;;;;;;;;;;;
2023/05/05 07:45:25;;;;;;;;;;;;;;;;;;;;;
2023/05/05 07:52:09;;;;;;;5.55;2.00;;;;;;;18.98;58.53;95806.25;6037288;23;20169;-87
2023/05/05 07:54:35;;;;;;;2.88;1.65;;;;;;;19.00;58.49;95806.91;6012090;23;20162;-87
2023/05/05 07:57:21;;;;;;;;;;;;;;;;;;;;;
2023/05/05 08:07:35;;;;;;;3.30;1.90;;;;;;;18.86;58.92;95784.13;6151962;23;20205;-87
2023/05/05 08:10:24;;;;;;;4.22;1.73;;;;;;;19.52;56.92;95785.28;6133602;23;20189;-86
2023/05/05 08:23:08;;;;;;;;;;;;;;;;;;;;;
2023/05/05 08:45:20;;;;;;;2.92;2.13;;;;;;;20.78;51.47;95795.22;6155889;23;20166;-87
2023/05/05 10:35:29;;;;;;;4.97;2.47;;;;;;;19.72;61.11;95768.75;6151157;23;20304;-83
2023/05/05 10:37:57;;;;;;;4.60;2.63;;;;;;;19.68;62.56;95765.69;6161517;23;20187;-82
2023/05/05 10:40:22;;;;;;;3.78;2.25;;;;;;;19.86;62.77;95765.13;6160534;23;20178;-83
2023/05/05 10:42:50;;;;;;;4.05;3.00;;;;;;;20.00;62.77;95769.41;6165020;23;20165;-84
2023/05/05 10:45:16;;;;;;;4.88;3.20;;;;;;;20.07;62.89;95761.53;6141233;23;20170;-83
2023/05/05 10:47:43;;;;;;;3.88;3.17;;;;;;;20.18;61.30;95763.56;6164159;23;20159;-83
2023/05/05 10:50:36;;;;;;;3.60;3.30;;;;;;;20.56;60.40;95762.97;6164284;23;20197;-84
2023/05/05 10:53:24;;;;;;;4.45;3.10;;;;;;;20.50;60.18;95759.34;6162542;23;20174;-82
2023/05/05 10:56:01;;;;;;;3.28;2.97;;;;;;;21.15;57.74;95760.22;6136694;23;20162;-81
2023/05/05 10:58:37;;;;;;;3.60;2.85;;;;;;;21.48;56.70;95757.50;6135317;23;20175;-84
2023/05/05 11:01:04;;;;;;;4.80;3.03;;;;;;;21.68;54.69;95757.38;6136443;23;20928;-83
2023/05/05 11:03:29;;;;;;;2.75;2.47;;;;;;;21.36;52.34;95755.69;6137049;23;20163;-83
2023/05/05 11:06:06;;;;;;;5.40;2.55;;;;;;;20.76;54.67;95753.22;6134392;23;20365;-84
2023/05/05 11:08:50;;;;;;;4.55;2.60;;;;;;;20.96;54.66;95755.81;6186473;23;20139;-83
2023/05/05 11:11:15;;;;;;;5.40;2.30;;;;;;;20.56;54.13;95755.06;6137229;23;20151;-84
2023/05/05 11:13:43;;;;;;;3.45;2.53;;;;;;;21.69;51.38;95747.63;6133437;23;20240;-84
2023/05/05 11:16:41;;;;;;;10.45;3.00;;;;;;;22.43;51.87;95748.75;6156521;23;20155;-84
2023/05/05 11:19:42;;;;;;;5.10;2.55;;;;;;;22.79;49.58;95738.25;6158234;23;20838;-83
2023/05/05 11:22:10;;;;;;;3.85;2.47;;;;;;;23.13;47.36;95738.72;6155656;23;20155;-84
2023/05/05 11:24:38;;;;;;;4.18;2.33;;;;;;;23.29;48.59;95732.84;6156652;23;20242;-84
2023/05/05 11:27:07;;;;;;;2.55;2.35;;;;;;;23.24;50.07;95723.97;6131049;23;20222;-84
2023/05/05 11:33:49;;;;;;;2.88;1.95;;;;;;;22.93;47.81;95723.06;6160248;23;20234;-85
2023/05/05 11:37:18;;;;;;;2.78;2.47;;;;;;;23.40;47.74;95721.47;6149015;23;20185;-85
2023/05/05 11:44:10;;;;;;;3.15;2.50;;;;;;;22.48;48.10;95714.53;5961894;24;20189;-88
2023/05/05 11:50:00;;;;;;;3.75;2.30;;;;;;;23.11;46.61;95712.47;5950447;24;20278;-86
2023/05/05 11:53:05;;;;;;;2.72;2.50;;;;;;;22.63;47.98;95706.25;5926882;24;20204;-86
2023/05/05 11:55:48;;;;;;;6.10;2.45;;;;;;;21.74;50.31;95708.97;5867930;24;20302;-85
2023/05/05 11:58:34;;;;;;;4.13;2.22;;;;;;;21.31;51.26;95700.06;5867825;24;20189;-86
2023/05/05 12:01:30;;;;;;;4.13;2.25;;;;;;;21.53;51.26;95703.19;5867795;24;20173;-85
2023/05/05 12:03:56;;;;;;;4.63;2.53;;;;;;;21.48;50.82;95699.38;5868297;24;20173;-80
2023/05/05 12:06:21;;;;;;;3.42;2.30;;;;;;;21.05;52.63;95706.22;5871050;24;20166;-82
2023/05/05 12:08:47;;;;;;;2.45;2.25;;;;;;;20.89;52.66;95703.03;5868853;24;20213;-82
2023/05/05 12:11:12;;;;;;;5.25;2.13;;;;;;;20.69;53.49;95698.84;5870789;24;20219;-82
2023/05/05 12:13:37;;;;;;;5.88;2.35;;;;;;;20.55;54.80;95698.84;5873006;24;20643;-82
2023/05/05 12:16:15;;;;;;;2.45;2.25;;;;;;;20.97;54.03;95702.00;5931329;24;20175;-84
2023/05/05 12:18:45;;;;;;;3.30;2.58;;;;;;;21.08;54.19;95696.06;5905410;24;20729;-84
2023/05/05 12:24:37;;;;;;;4.22;2.58;;;;;;;21.35;50.85;95672.19;5924260;24;20184;-84
2023/05/05 12:27:07;;;;;;;4.50;2.35;;;;;;;21.65;50.06;95673.25;5900627;24;20164;-84
2023/05/05 12:29:32;;;;;;;3.70;2.30;;;;;;;21.43;50.20;95671.94;5924381;24;20195;-86
2023/05/05 12:31:59;;;;;;;2.83;2.30;;;;;;;21.30;50.98;95669.41;5998706;23;20162;-84
2023/05/05 12:34:24;;;;;;;3.10;2.13;;;;;;;21.36;50.51;95676.44;6037270;23;20242;-85
2023/05/05 12:36:52;;;;;;;2.63;2.42;;;;;;;20.90;51.70;95674.81;6065963;23;20189;-83
2023/05/05 12:39:20;;;;;;;2.10;1.95;;;;;;;20.79;51.94;95676.25;6066395;23;20177;-84
2023/05/05 12:41:46;;;;;;;4.45;2.40;;;;;;;19.97;54.59;95674.94;6044312;23;20185;-80
2023/05/05 12:44:11;;;;;;;4.70;2.70;;;;;;;20.13;57.49;95672.88;6076129;23;20230;-80
2023/05/05 12:46:46;;;;;;;4.65;2.70;;;;;;;19.71;59.84;95669.66;6074395;23;20157;-82
2023/05/05 12:49:16;;;;;;;5.55;3.33;;;;;;;19.74;62.71;95670.06;6069781;23;20191;-86
2023/05/05 12:51:52;;;;;;;8.25;2.97;;;;;;;19.59;65.00;95666.78;6063987;23;20161;-84
2023/05/05 12:54:18;;;;;;;5.57;3.00;;;;;;;19.52;66.11;95666.75;6066201;23;20153;-83
2023/05/05 12:56:45;;;;;;;5.68;3.70;;;;;;;19.43;67.79;95667.94;6064372;23;20546;-84
2023/05/05 12:59:31;;;;;;;6.05;3.92;;;;;;;19.54;70.27;95669.19;6041881;23;20220;-83
2023/05/05 13:01:58;;;;;;;5.32;3.40;;;;;;;19.64;71.98;95674.09;6130059;23;20159;-84
2023/05/05 13:04:25;;;;;;;4.53;3.50;;;;;;;19.62;72.39;95668.22;6154688;23;20668;-82
2023/05/05 13:07:20;;;;;;;3.72;3.05;;;;;;;19.47;74.01;95657.81;6155490;23;20151;-82
2023/05/05 13:09:47;;;;;;;4.15;3.15;;;;;;;19.57;73.82;95653.00;6130289;23;20190;-84
2023/05/05 13:12:13;;;;;;;6.55;3.22;;;;;;;19.20;71.84;95646.44;6180589;23;20183;-84
2023/05/05 13:14:40;;;;;;;16.23;11.50;;;;;;;19.56;74.45;95651.38;6156733;23;20166;-84
2023/05/05 13:17:05;;;;;;;32.97;23.13;;;;;;;20.03;73.38;95653.03;6129014;23;20241;-83
2023/05/05 13:19:45;;;;;;;19.98;14.68;;;;;;;20.11;72.35;95651.19;6179237;23;20253;-83
2023/05/05 13:22:13;;;;;;;4.47;3.78;;;;;;;20.03;68.07;95636.41;6133201;23;20194;-85
2023/05/05 13:24:42;;;;;;;5.47;4.55;;;;;;;19.30;69.35;95630.25;6153839;23;20167;-83
2023/05/05 13:27:17;;;;;;;7.40;3.53;;;;;;;19.46;67.00;95625.41;6125204;23;21200;-82
2023/05/05 13:29:49;;;;;;;6.68;4.38;;;;;;;19.78;68.11;95623.84;6151511;23;20629;-82
2023/05/05 13:32:20;;;;;;;8.43;5.88;;;;;;;19.70;69.32;95615.31;6151816;23;20159;-82
2023/05/05 13:34:50;;;;;;;7.20;5.68;;;;;;;19.74;69.35;95611.28;6158292;23;20162;-83
2023/05/05 13:37:16;;;;;;;7.15;6.43;;;;;;;19.48;66.19;95607.59;6158331;23;20167;-83
2023/05/05 13:39:50;;;;;;;6.07;5.43;;;;;;;19.44;66.09;95601.13;6157592;23;20203;-83
2023/05/05 13:42:21;;;;;;;6.90;4.43;;;;;;;19.36;67.85;95596.03;6159981;23;20193;-84
2023/05/05 13:44:46;;;;;;;7.53;4.03;;;;;;;19.00;67.93;95595.56;6135180;23;20612;-80
2023/05/05 13:47:12;;;;;;;4.10;3.65;;;;;;;19.13;69.23;95588.50;6156668;23;20178;-81
2023/05/05 13:49:38;;;;;;;7.53;4.00;;;;;;;18.87;72.87;95599.75;6133212;23;20178;-83
2023/05/05 13:52:03;;;;;;;5.38;3.80;;;;;;;19.14;68.90;95589.31;6132778;23;20166;-83
2023/05/05 13:54:28;;;;;;;4.68;3.55;;;;;;;18.95;70.32;95583.81;6183986;23;20162;-82
2023/05/05 13:56:53;;;;;;;5.85;4.22;;;;;;;19.06;70.75;95582.41;6182424;23;20175;-82
2023/05/05 13:59:19;;;;;;;6.93;3.65;;;;;;;18.95;70.40;95575.09;6156031;23;20202;-82
2023/05/05 14:01:44;;;;;;;5.47;4.03;;;;;;;19.46;69.87;95575.38;6181482;23;20233;-83
2023/05/05 14:04:10;;;;;;;5.07;4.53;;;;;;;19.55;72.86;95568.09;6132780;23;20166;-82
2023/05/05 14:06:35;;;;;;;6.85;4.75;;;;;;;19.69;74.94;95566.28;6182634;23;20186;-81
2023/05/05 14:09:00;;;;;;;5.63;3.55;;;;;;;19.64;73.04;95569.53;6132553;23;20182;-80
2023/05/05 14:11:26;;;;;;;3.95;3.47;;;;;;;19.56;71.74;95566.25;6158746;23;20155;-80
2023/05/05 14:13:51;;;;;;;4.80;3.17;;;;;;;19.66;70.43;95571.97;6137822;23;20162;-81
2023/05/05 14:16:16;;;;;;;3.92;2.55;;;;;;;19.99;66.94;95578.03;6159819;23;20189;-83
2023/05/05 14:18:42;;;;;;;4.00;3.20;;;;;;;20.45;64.62;95577.13;6132824;23;20539;-83
2023/05/05 14:21:07;;;;;;;5.00;3.50;;;;;;;20.92;67.55;95577.72;6133861;23;20671;-84
2023/05/05 14:23:33;;;;;;;4.50;3.38;;;;;;;21.15;66.76;95579.84;6157723;23;20182;-84
2023/05/05 14:25:59;;;;;;;4.55;2.92;;;;;;;21.05;66.25;95585.59;6184800;23;20379;-83
2023/05/05 14:28:24;;;;;;;5.43;3.00;;;;;;;21.02;66.17;95579.91;6158667;23;20193;-84
2023/05/05 14:30:49;;;;;;;3.88;2.92;;;;;;;20.74;66.78;95574.97;6160413;23;20159;-83
2023/05/05 14:33:15;;;;;;;3.72;3.20;;;;;;;20.30;68.64;95568.63;6161509;23;20161;-84
2023/05/05 14:35:40;;;;;;;7.57;3.50;;;;;;;20.30;66.71;95558.06;6189006;23;20170;-84
2023/05/05 14:38:06;;;;;;;4.10;3.17;;;;;;;20.22;66.84;95566.19;6189718;23;20221;-85
2023/05/05 14:40:31;;;;;;;3.80;3.40;;;;;;;20.51;66.97;95560.47;6138675;23;20201;-85
2023/05/05 14:42:56;;;;;;;5.43;3.40;;;;;;;20.52;66.84;95567.38;6189443;23;20167;-83
2023/05/05 14:45:22;;;;;;;9.45;4.43;;;;;;;20.23;70.44;95554.63;6161767;23;20166;-85
2023/05/05 14:47:47;;;;;;;4.22;3.90;;;;;;;20.09;69.65;95552.03;6189332;23;20854;-83
2023/05/05 14:50:12;;;;;;;5.75;3.60;;;;;;;19.95;69.44;95557.53;6190103;23;20691;-84
2023/05/05 14:52:39;;;;;;;4.03;3.28;;;;;;;20.12;67.41;95552.63;6190212;23;20245;-85
2023/05/05 14:55:05;;;;;;;3.95;3.65;;;;;;;20.01;68.31;95554.09;6162192;23;20159;-82
2023/05/05 14:57:30;;;;;;;6.65;3.80;;;;;;;19.98;68.19;95560.59;6187467;23;20221;-82
2023/05/05 14:59:56;;;;;;;5.63;3.45;;;;;;;19.85;70.31;95560.59;6161205;23;20179;-85
2023/05/05 15:02:21;;;;;;;5.00;3.85;;;;;;;19.72;70.88;95571.97;6137865;23;20185;-81
2023/05/05 15:04:46;;;;;;;3.80;3.22;;;;;;;19.61;71.90;95558.59;6156221;23;20151;-81
2023/05/05 15:07:11;;;;;;;3.10;2.90;;;;;;;19.32;73.25;95557.94;6130874;23;20150;-81
2023/05/05 15:09:37;;;;;;;5.47;3.50;;;;;;;19.25;73.19;95551.84;6131874;23;20205;-80
2023/05/05 15:12:02;;;;;;;4.70;3.60;;;;;;;19.00;75.52;95553.47;6131252;23;20213;-81
2023/05/05 15:14:27;;;;;;;4.32;3.80;;;;;;;18.89;78.08;95558.28;6156692;23;20592;-81
2023/05/05 15:16:53;;;;;;;6.50;4.32;;;;;;;18.73;78.58;95556.03;6130719;23;20255;-80
2023/05/05 15:19:18;;;;;;;4.68;3.88;;;;;;;18.66;79.77;95548.09;6155759;23;20178;-81
2023/05/05 15:21:43;;;;;;;5.60;3.90;;;;;;;18.59;81.53;95546.44;6131546;23;20148;-80
2023/05/05 15:24:09;;;;;;;4.78;4.10;;;;;;;18.51;83.14;95541.34;6180510;23;20165;-79
2023/05/05 15:26:34;;;;;;;6.22;4.18;;;;;;;18.24;84.87;95538.59;6136076;23;20158;-80
2023/05/05 15:28:59;;;;;;;4.72;4.13;;;;;;;18.11;87.44;95541.16;6186195;23;20185;-80
2023/05/05 15:31:25;;;;;;;4.68;3.80;;;;;;;18.17;86.14;95529.88;6153693;23;20147;-81
2023/05/05 15:33:50;;;;;;;7.22;4.20;;;;;;;18.03;88.48;95534.25;6134165;23;20159;-84
2023/05/05 15:36:21;;;;;;;4.88;3.90;;;;;;;17.91;89.29;95540.22;6134391;23;20193;-83
2023/05/05 15:38:46;;;;;;;8.32;4.90;;;;;;;17.59;91.47;95552.13;6135639;23;20202;-82
2023/05/05 15:41:11;;;;;;;5.32;4.10;;;;;;;17.41;91.44;95560.47;6163253;23;20831;-82
2023/05/05 15:43:44;;;;;;;5.68;4.07;;;;;;;17.18;93.62;95569.34;6160450;23;20170;-84
2023/05/05 15:46:09;;;;;;;4.38;3.97;;;;;;;17.10;93.35;95587.00;6158323;23;20178;-82
2023/05/05 15:48:35;;;;;;;6.15;4.68;;;;;;;16.93;96.84;95595.13;6159723;23;20170;-83
2023/05/05 15:51:00;;;;;;;9.00;4.30;;;;;;;16.99;95.59;95607.50;6134827;23;20476;-84
2023/05/05 15:53:25;;;;;;;5.65;4.35;;;;;;;16.70;96.72;95626.75;6135008;23;20652;-84
2023/05/05 15:55:51;;;;;;;6.65;4.85;;;;;;;16.37;100.00;95639.38;6159991;23;20158;-83
2023/05/05 15:58:16;;;;;;;9.68;4.75;;;;;;;16.35;98.67;95656.28;6159582;23;20170;-83
2023/05/05 16:00:42;;;;;;;8.15;4.45;;;;;;;16.28;97.33;95660.63;6183709;23;20213;-82
2023/05/05 16:03:07;;;;;;;3.60;3.00;;;;;;;16.10;95.10;95656.53;6131965;23;20170;-83
2023/05/05 16:05:32;;;;;;;7.82;4.20;;;;;;;16.10;91.95;95643.44;6185767;23;20477;-83
2023/05/05 16:07:58;;;;;;;6.13;5.47;;;;;;;16.16;90.50;95647.13;6184721;23;20151;-84
2023/05/05 16:10:23;;;;;;;2.92;2.65;;;;;;;16.14;88.45;95655.19;6184958;23;20182;-82
2023/05/05 16:12:50;;;;;;;7.60;5.45;;;;;;;16.20;88.14;95647.59;6160973;23;20175;-82
2023/05/05 16:15:16;;;;;;;6.90;4.85;;;;;;;16.00;89.23;95658.63;6189104;23;20174;-84
2023/05/05 16:17:41;;;;;;;5.47;3.97;;;;;;;16.10;90.57;95661.78;6189660;23;20189;-84
2023/05/05 16:20:07;;;;;;;3.38;2.63;;;;;;;16.02;90.84;95669.72;6190107;23;20193;-82
2023/05/05 16:22:32;;;;;;;6.53;4.30;;;;;;;15.98;92.93;95668.44;6162157;23;20162;-83
2023/05/05 16:24:57;;;;;;;4.75;3.72;;;;;;;15.91;94.57;95664.91;6184571;23;20158;-84
2023/05/05 16:27:23;;;;;;;8.95;4.00;;;;;;;15.89;94.68;95669.50;6158898;23;20161;-83
2023/05/05 16:29:48;;;;;;;6.68;3.88;;;;;;;15.90;96.29;95655.41;6159913;23;20635;-83
2023/05/05 16:32:14;;;;;;;5.78;3.70;;;;;;;15.89;95.56;95651.16;6189674;23;20185;-83
2023/05/05 16:34:39;;;;;;;3.60;2.83;;;;;;;15.89;94.73;95643.31;6187981;23;20174;-83
2023/05/05 16:37:04;;;;;;;4.75;3.70;;;;;;;15.94;94.78;95637.56;6190645;23;20174;-84
2023/05/05 16:39:31;;;;;;;10.43;9.55;;;;;;;16.13;94.70;95640.47;6165587;23;20182;-83
2023/05/05 16:41:57;;;;;;;8.75;8.00;;;;;;;16.27;93.15;95643.28;6188341;23;20937;-83
2023/05/05 16:44:22;;;;;;;11.15;8.40;;;;;;;16.48;92.57;95622.38;6136376;23;20159;-83
2023/05/05 16:46:47;;;;;;;9.27;8.43;;;;;;;16.56;92.37;95621.47;6157980;23;20167;-83
2023/05/05 16:49:13;;;;;;;9.38;8.45;;;;;;;16.63;92.25;95615.31;6160238;23;20219;-83
2023/05/05 16:51:38;;;;;;;5.03;3.80;;;;;;;16.72;92.21;95607.41;6188162;23;20233;-85
2023/05/05 16:54:03;;;;;;;4.78;3.85;;;;;;;16.88;91.54;95609.81;6191356;23;20165;-82
2023/05/05 16:56:28;;;;;;;6.00;4.80;;;;;;;17.14;90.42;95606.63;6188244;23;20170;-82
2023/05/05 16:58:54;;;;;;;4.07;3.53;;;;;;;17.18;89.26;95600.00;6160572;23;20187;-82
2023/05/05 17:01:19;;;;;;;8.13;3.78;;;;;;;17.14;88.64;95607.47;6188624;23;20163;-82
2023/05/05 17:03:44;;;;;;;4.50;3.20;;;;;;;17.38;88.74;95608.88;6134737;23;20170;-83
2023/05/05 17:06:11;;;;;;;5.20;3.75;;;;;;;17.34;88.64;95606.84;6136676;23;20162;-82
2023/05/05 17:08:37;;;;;;;6.10;3.80;;;;;;;17.32;89.08;95611.47;6134636;23;20186;-82
2023/05/05 17:11:02;;;;;;;5.13;3.70;;;;;;;17.28;89.80;95617.06;6132300;23;20479;-82
2023/05/05 17:13:28;;;;;;;4.75;3.47;;;;;;;17.15;90.62;95613.50;6155579;23;20158;-81
2023/05/05 17:15:53;;;;;;;5.75;3.20;;;;;;;16.86;91.44;95624.88;6155975;23;20222;-83
2023/05/05 17:18:20;;;;;;;3.53;3.22;;;;;;;16.94;91.49;95627.41;6133671;23;21039;-82
2023/05/05 17:20:45;;;;;;;5.07;3.83;;;;;;;16.73;92.00;95624.75;6134363;23;20209;-82
2023/05/05 17:23:11;;;;;;;4.38;3.80;;;;;;;16.69;91.57;95617.22;6133992;23;20616;-82
2023/05/05 17:25:36;;;;;;;6.22;3.70;;;;;;;16.58;92.40;95624.72;6133728;23;20166;-83
2023/05/05 17:28:01;;;;;;;4.63;3.50;;;;;;;16.53;92.04;95625.28;6131303;23;20155;-84
2023/05/05 17:30:27;;;;;;;5.72;4.30;;;;;;;16.50;93.32;95624.81;6132445;23;20174;-83
2023/05/05 17:32:52;;;;;;;3.95;3.55;;;;;;;16.29;93.64;95628.19;6161324;23;20162;-84
2023/05/05 17:35:17;;;;;;;4.43;4.00;;;;;;;16.34;93.00;95636.31;6158650;23;20231;-84
2023/05/05 17:37:43;;;;;;;6.10;4.15;;;;;;;16.27;95.01;95635.41;6136210;23;20187;-84
2023/05/05 17:40:08;;;;;;;6.40;4.50;;;;;;;16.26;94.80;95637.22;6131150;23;20187;-82
2023/05/05 17:42:33;;;;;;;4.63;4.18;;;;;;;16.21;95.19;95636.94;6158742;23;20559;-84
2023/05/05 17:44:59;;;;;;;6.85;4.25;;;;;;;16.16;95.55;95631.41;6132071;23;20158;-80
2023/05/05 17:47:25;;;;;;;5.60;4.65;;;;;;;16.08;95.52;95626.28;6131600;23;20166;-81
2023/05/05 17:49:52;;;;;;;5.82;4.85;;;;;;;16.03;95.13;95632.06;6132019;23;20178;-81
2023/05/05 17:52:17;;;;;;;7.55;5.22;;;;;;;15.99;95.36;95624.72;6157094;23;20163;-81
2023/05/05 17:54:43;;;;;;;5.70;4.63;;;;;;;15.92;95.54;95627.25;6157306;23;20664;-83
2023/05/05 17:57:08;;;;;;;5.38;3.95;;;;;;;15.86;95.27;95622.72;6133039;23;20194;-82
2023/05/05 17:59:34;;;;;;;4.38;3.90;;;;;;;15.90;95.38;95626.59;6162429;23;20170;-83
2023/05/05 18:01:59;;;;;;;4.28;3.88;;;;;;;15.91;94.88;95630.06;6186090;23;20186;-83
2023/05/05 18:04:24;;;;;;;6.75;4.22;;;;;;;15.80;95.02;95626.03;6148600;23;20212;-85
2023/05/05 18:06:50;;;;;;;4.93;4.13;;;;;;;15.83;94.92;95638.81;6162274;23;20165;-84
2023/05/05 18:09:16;;;;;;;4.60;3.65;;;;;;;15.82;95.14;95637.19;6133867;23;20178;-82
2023/05/05 18:11:41;;;;;;;5.10;4.57;;;;;;;15.83;94.99;95639.63;6136047;23;20596;-84
2023/05/05 18:14:09;;;;;;;8.10;6.65;;;;;;;15.73;95.42;95638.25;6162008;23;20165;-84
2023/05/05 18:16:34;;;;;;;8.05;6.65;;;;;;;15.67;95.76;95634.50;6134626;23;20167;-84
2023/05/05 18:19:00;;;;;;;5.97;4.40;;;;;;;15.55;96.72;95631.47;6160230;23;20527;-84
2023/05/05 18:21:25;;;;;;;7.18;4.90;;;;;;;15.57;96.11;95624.25;6185718;23;20592;-82
2023/05/05 18:23:52;;;;;;;7.38;5.22;;;;;;;15.65;95.07;95623.41;6160016;23;20612;-84
2023/05/05 18:26:17;;;;;;;5.82;4.25;;;;;;;15.56;95.98;95632.28;6159271;23;20158;-84
2023/05/05 18:28:43;;;;;;;6.85;3.90;;;;;;;15.60;95.57;95633.56;6157842;23;20171;-84
2023/05/05 18:31:08;;;;;;;5.43;3.47;;;;;;;15.58;95.69;95646.00;6159268;23;20236;-85
2023/05/05 18:33:33;;;;;;;4.35;3.90;;;;;;;15.51;95.72;95645.88;6135417;23;20165;-84
2023/05/05 18:36:00;;;;;;;7.25;4.25;;;;;;;15.46;96.26;95643.00;6159141;23;20175;-84
2023/05/05 18:38:25;;;;;;;6.25;3.70;;;;;;;15.43;96.52;95643.34;6160223;23;20240;-83
2023/05/05 18:40:51;;;;;;;3.88;3.00;;;;;;;15.36;96.49;95649.44;6186430;23;20158;-83
2023/05/05 18:43:16;;;;;;;3.30;3.00;;;;;;;15.36;95.87;95650.25;6185517;23;20165;-83
2023/05/05 18:45:41;;;;;;;4.70;3.00;;;;;;;15.22;96.25;95651.84;6185678;23;20169;-84
2023/05/05 18:48:07;;;;;;;3.25;2.70;;;;;;;15.23;96.56;95653.47;6158721;23;20816;-85
2023/05/05 18:50:32;;;;;;;4.88;3.05;;;;;;;15.25;97.03;95645.44;6186247;23;20173;-83
2023/05/05 18:52:57;;;;;;;4.35;3.05;;;;;;;15.27;96.26;95646.88;6159187;23;20162;-84
2023/05/05 18:55:23;;;;;;;3.38;2.90;;;;;;;15.15;96.79;95647.47;6187913;23;20166;-83
2023/05/05 18:57:48;;;;;;;3.20;2.90;;;;;;;15.18;96.68;95660.19;6187656;23;20170;-85
2023/05/05 19:00:14;;;;;;;4.63;2.95;;;;;;;15.10;97.18;95663.66;6185908;23;20257;-85
2023/05/05 19:02:39;;;;;;;3.60;3.30;;;;;;;15.09;97.15;95666.44;6186169;23;20159;-84
2023/05/05 19:05:05;;;;;;;4.25;3.03;;;;;;;15.07;97.40;95676.28;6188319;23;20157;-84
2023/05/05 19:07:30;;;;;;;3.70;3.23;;;;;;;15.08;97.28;95680.53;6160414;23;20167;-84
2023/05/05 19:09:56;;;;;;;6.18;3.00;;;;;;;14.95;97.58;95683.69;6133918;23;20597;-84
2023/05/05 19:12:21;;;;;;;4.33;3.37;;;;;;;14.99;97.29;95683.19;6133955;23;20155;-83
2023/05/05 19:14:46;;;;;;;4.18;3.25;;;;;;;14.94;97.35;95682.88;6135608;23;20218;-83
2023/05/05 19:17:12;;;;;;;7.05;3.90;;;;;;;14.86;97.83;95682.94;6185899;23;20179;-84
2023/05/05 19:19:37;;;;;;;5.80;3.43;;;;;;;14.83;98.23;95690.28;6158320;23;20170;-82
2023/05/05 19:22:03;;;;;;;4.43;3.57;;;;;;;14.70;99.04;95699.50;6185248;23;20490;-82
2023/05/05 19:24:28;;;;;;;5.20;4.07;;;;;;;14.74;99.17;95700.75;6158655;23;20517;-84
2023/05/05 19:26:53;;;;;;;6.40;3.60;;;;;;;14.77;98.44;95698.81;6181890;23;20178;-84
2023/05/05 19:29:19;;;;;;;8.23;4.17;;;;;;;14.82;98.30;95699.94;6133404;23;20240;-82
2023/05/05 19:31:44;;;;;;;4.47;3.70;;;;;;;14.75;98.74;95701.56;6156249;23;20189;-83
2023/05/05 19:34:10;;;;;;;8.23;4.07;;;;;;;14.79;98.68;95708.13;6183608;23;20155;-82
2023/05/05 19:36:35;;;;;;;6.72;4.78;;;;;;;14.67;100.00;95709.47;6183431;23;20166;-81
2023/05/05 19:39:01;;;;;;;7.03;4.57;;;;;;;14.70;100.00;95711.75;6158225;23;20183;-83
2023/05/05 19:41:28;;;;;;;9.30;4.83;;;;;;;14.72;100.00;95709.78;6184708;23;20784;-83
2023/05/05 19:43:53;;;;;;;6.30;4.70;;;;;;;14.81;100.00;95711.38;6182760;23;20241;-82
2023/05/05 19:46:18;;;;;;;6.37;5.13;;;;;;;14.71;100.00;95718.59;6132960;23;20520;-83
2023/05/05 19:48:47;;;;;;;7.13;5.23;;;;;;;14.75;100.00;95722.50;6158021;23;20656;-83
2023/05/05 19:51:12;;;;;;;7.67;5.60;;;;;;;14.64;100.00;95715.03;6157996;23;20174;-84
2023/05/05 19:53:41;;;;;;;7.50;5.00;;;;;;;14.59;100.00;95723.38;6184551;23;20191;-83
2023/05/05 19:56:07;;;;;;;9.97;5.23;;;;;;;14.64;100.00;95717.63;6134763;23;20159;-84
2023/05/05 19:58:53;;;;;;;7.40;4.80;;;;;;;14.63;100.00;95710.78;6157291;23;20196;-83
2023/05/05 20:01:18;;;;;;;5.15;4.65;;;;;;;14.63;100.00;95713.41;6158139;23;20464;-84
2023/05/05 20:03:44;;;;;;;4.57;3.73;;;;;;;14.63;100.00;95710.78;6133901;23;20164;-84
2023/05/05 20:06:09;;;;;;;5.53;4.23;;;;;;;14.60;100.00;95708.50;6157241;23;20168;-84
2023/05/05 20:08:35;;;;;;;5.93;4.43;;;;;;;14.46;100.00;95725.69;6185583;23;20146;-82
2023/05/05 20:11:00;;;;;;;10.43;6.47;;;;;;;14.44;100.00;95723.22;6158763;23;20165;-80